createdAt,value
2023-01-21T00:00:58.681Z,90.20
2023-01-21T00:03:25.562Z,90.20
2023-01-21T00:05:52.579Z,90.30
2023-01-21T00:08:19.455Z,90.20
2023-01-21T00:10:46.391Z,90.30
2023-01-21T00:13:13.158Z,90.10
2023-01-21T00:15:40.004Z,90.00
2023-01-21T00:18:07.184Z,90.10
2023-01-21T00:20:34.645Z,90.10
2023-01-21T00:23:01.780Z,90.00
2023-01-21T00:25:28.734Z,89.90
2023-01-21T00:27:55.596Z,90.00
2023-01-21T00:30:22.574Z,90.00
2023-01-21T00:32:49.359Z,89.90
2023-01-21T00:35:16.318Z,90.00
2023-01-21T00:37:43.071Z,90.00
2023-01-21T00:40:10.395Z,89.90
2023-01-21T00:42:37.324Z,90.00
2023-01-21T00:45:04.426Z,90.00
2023-01-21T00:47:31.288Z,90.10
2023-01-21T00:49:57.988Z,90.00
2023-01-21T00:52:24.790Z,90.10
2023-01-21T00:54:51.629Z,90.20
2023-01-21T00:57:18.390Z,90.00
2023-01-21T00:59:45.436Z,90.00
2023-01-21T01:02:12.231Z,90.00
2023-01-21T01:04:39.096Z,90.20
2023-01-21T01:07:05.888Z,90.20
2023-01-21T01:09:32.621Z,90.20
2023-01-21T01:11:59.386Z,90.10
2023-01-21T01:14:26.181Z,90.00
2023-01-21T01:16:52.935Z,90.10
2023-01-21T01:19:19.769Z,89.90
2023-01-21T01:21:46.593Z,89.90
2023-01-21T01:24:13.353Z,89.90
2023-01-21T01:26:42.261Z,90.00
2023-01-21T01:29:12.496Z,90.00
2023-01-21T01:31:39.638Z,89.70
2023-01-21T01:34:06.613Z,89.70
2023-01-21T01:36:33.414Z,89.60
2023-01-21T01:39:00.184Z,89.50
2023-01-21T01:41:29.985Z,89.50
2023-01-21T01:44:02.268Z,89.60
2023-01-21T01:46:32.439Z,89.30
2023-01-21T01:49:20.814Z,89.60
2023-01-21T01:51:52.577Z,89.60
2023-01-21T01:54:25.032Z,89.60
2023-01-21T01:56:55.392Z,89.60
2023-01-21T01:59:22.248Z,89.60
2023-01-21T02:01:49.363Z,89.60
2023-01-21T02:04:26.392Z,89.50
2023-01-21T02:06:55.525Z,89.60
2023-01-21T02:09:23.266Z,89.40
2023-01-21T02:11:50.083Z,89.50
2023-01-21T02:14:18.784Z,89.60
2023-01-21T02:17:23.202Z,89.50
2023-01-21T02:20:28.471Z,89.50
2023-01-21T02:23:08.206Z,89.40
2023-01-21T02:26:40.291Z,89.70
2023-01-21T02:29:35.325Z,89.80
2023-01-21T02:32:32.357Z,89.50
2023-01-21T02:35:23.252Z,89.60
2023-01-21T02:38:06.891Z,89.80
2023-01-21T02:40:45.531Z,89.80
2023-01-21T02:43:18.424Z,89.80
2023-01-21T02:46:12.849Z,89.80
2023-01-21T02:48:56.569Z,89.80
2023-01-21T02:51:24.414Z,89.80
2023-01-21T02:53:51.145Z,89.90
2023-01-21T02:56:23.373Z,89.90
2023-01-21T02:59:04.800Z,90.00
2023-01-21T03:02:13.283Z,89.80
2023-01-21T03:05:03.827Z,89.80
2023-01-21T03:07:35.487Z,89.80
2023-01-21T03:10:10.592Z,89.90
2023-01-21T03:12:46.503Z,89.80
2023-01-21T03:15:45.333Z,89.70
2023-01-21T03:18:36.138Z,89.80
2023-01-21T03:21:20.333Z,89.80
2023-01-21T03:23:49.846Z,89.70
2023-01-21T03:26:20.384Z,89.80
2023-01-21T03:28:53.126Z,89.60
2023-01-21T03:31:25.429Z,89.40
2023-01-21T03:33:55.492Z,89.30
2023-01-21T03:36:41.135Z,89.00
2023-01-21T03:39:18.779Z,88.80
2023-01-21T03:41:45.702Z,88.90
2023-01-21T03:44:12.509Z,89.00
2023-01-21T03:47:11.145Z,88.90
2023-01-21T03:49:56.998Z,88.90
2023-01-21T03:52:26.038Z,89.20
2023-01-21T03:54:53.831Z,89.30
2023-01-21T03:57:20.635Z,89.20
2023-01-21T03:59:47.389Z,89.30
2023-01-21T04:02:19.226Z,89.30
2023-01-21T04:04:49.037Z,89.40
2023-01-21T04:07:16.595Z,89.30
2023-01-21T04:09:43.542Z,89.20
2023-01-21T04:12:10.331Z,89.30
2023-01-21T04:14:37.350Z,89.30
2023-01-21T04:17:05.036Z,89.20
2023-01-21T04:19:31.812Z,89.30
2023-01-21T04:21:58.722Z,89.10
2023-01-21T04:24:25.764Z,89.10
2023-01-21T04:26:52.783Z,88.90
2023-01-21T04:29:20.743Z,89.00
2023-01-21T04:31:48.269Z,89.10
2023-01-21T04:34:16.704Z,89.20
2023-01-21T04:36:43.527Z,89.20
2023-01-21T04:39:11.383Z,89.20
2023-01-21T04:41:38.138Z,89.10
2023-01-21T04:44:05.118Z,89.10
2023-01-21T04:46:31.836Z,89.10
2023-01-21T04:48:58.605Z,89.10
2023-01-21T04:51:25.447Z,89.30
2023-01-21T04:53:52.183Z,89.20
2023-01-21T04:56:18.899Z,89.20
2023-01-21T04:58:45.675Z,89.30
2023-01-21T05:01:12.426Z,89.20
2023-01-21T05:03:39.214Z,89.30
2023-01-21T05:06:06.214Z,89.20
2023-01-21T05:08:32.914Z,89.20
2023-01-21T05:10:59.626Z,89.30
2023-01-21T05:13:26.427Z,89.50
2023-01-21T05:15:53.685Z,89.60
2023-01-21T05:18:20.435Z,89.60
2023-01-21T05:20:47.179Z,89.80
2023-01-21T05:23:13.938Z,89.90
2023-01-21T05:25:40.661Z,89.90
2023-01-21T05:28:07.936Z,89.80
2023-01-21T05:30:34.671Z,89.70
2023-01-21T05:33:02.026Z,89.80
2023-01-21T05:35:28.964Z,89.70
2023-01-21T05:37:55.865Z,89.70
2023-01-21T05:40:22.592Z,89.60
2023-01-21T05:42:49.304Z,89.60
2023-01-21T05:45:16.066Z,89.50
2023-01-21T05:47:42.828Z,89.50
2023-01-21T05:50:10.775Z,89.50
2023-01-21T05:52:37.520Z,89.40
2023-01-21T05:55:04.948Z,89.40
2023-01-21T05:57:32.340Z,89.40
2023-01-21T05:59:59.207Z,89.40
2023-01-21T06:02:26.341Z,89.40
2023-01-21T06:04:53.137Z,89.40
2023-01-21T06:07:20.563Z,89.40
2023-01-21T06:09:47.286Z,89.20
2023-01-21T06:12:14.038Z,89.10
2023-01-21T06:14:40.776Z,89.10
2023-01-21T06:17:07.774Z,89.20
2023-01-21T06:19:34.591Z,89.20
2023-01-21T06:22:01.320Z,89.20
2023-01-21T06:24:28.059Z,89.20
2023-01-21T06:26:54.788Z,89.00
2023-01-21T06:29:21.495Z,89.00
2023-01-21T06:31:48.403Z,89.00
2023-01-21T06:34:15.431Z,89.00
2023-01-21T06:36:42.861Z,89.00
2023-01-21T06:39:10.779Z,89.10
2023-01-21T06:41:37.632Z,89.00
2023-01-21T06:44:04.635Z,89.10
2023-01-21T06:46:31.484Z,89.10
2023-01-21T06:48:58.571Z,89.10
2023-01-21T06:51:25.368Z,89.10
2023-01-21T06:53:52.210Z,88.90
2023-01-21T06:56:19.140Z,88.80
2023-01-21T06:58:45.890Z,88.60
2023-01-21T07:01:12.661Z,88.50
2023-01-21T07:03:39.560Z,88.50
2023-01-21T07:06:06.681Z,88.50
2023-01-21T07:08:33.362Z,88.50
2023-01-21T07:11:00.127Z,88.50
2023-01-21T07:13:26.882Z,88.60
2023-01-21T07:15:58.508Z,88.50
2023-01-21T07:18:25.554Z,88.40
2023-01-21T07:20:52.299Z,88.60
2023-01-21T07:23:18.991Z,88.50
2023-01-21T07:25:46.269Z,88.40
2023-01-21T07:28:12.965Z,88.40
2023-01-21T07:30:39.762Z,88.30
2023-01-21T07:33:08.015Z,88.30
2023-01-21T07:35:35.073Z,88.20
2023-01-21T07:38:02.138Z,88.00
2023-01-21T07:40:29.156Z,88.00
2023-01-21T07:42:56.286Z,87.80
2023-01-21T07:45:23.486Z,87.70
2023-01-21T07:47:50.386Z,87.80
2023-01-21T07:50:17.301Z,87.60
2023-01-21T07:52:44.048Z,87.80
2023-01-21T07:55:12.596Z,87.70
2023-01-21T07:57:39.550Z,87.70
2023-01-21T08:00:06.985Z,87.50
2023-01-21T08:02:33.885Z,87.50
2023-01-21T08:05:00.645Z,87.30
2023-01-21T08:07:27.330Z,87.40
2023-01-21T08:09:54.245Z,87.40
2023-01-21T08:12:20.993Z,87.70
2023-01-21T08:14:47.709Z,87.60
2023-01-21T08:17:14.699Z,87.50
2023-01-21T08:19:41.432Z,87.60
2023-01-21T08:22:08.154Z,87.80
2023-01-21T08:24:34.931Z,87.70
2023-01-21T08:27:01.738Z,87.60
2023-01-21T08:29:29.394Z,87.90
2023-01-21T08:31:57.298Z,87.90
2023-01-21T08:34:24.054Z,87.90
2023-01-21T08:36:50.774Z,88.30
2023-01-21T08:39:17.608Z,88.30
2023-01-21T08:41:44.755Z,88.40
2023-01-21T08:44:11.533Z,88.60
2023-01-21T08:46:38.275Z,88.70
2023-01-21T08:49:05.144Z,88.40
2023-01-21T08:51:31.906Z,88.60
2023-01-21T08:53:58.844Z,88.70
2023-01-21T08:56:25.636Z,88.50
2023-01-21T08:58:57.347Z,88.80
2023-01-21T09:01:25.686Z,88.80
2023-01-21T09:04:00.678Z,88.70
2023-01-21T09:06:29.986Z,88.50
2023-01-21T09:08:56.935Z,88.90
2023-01-21T09:11:24.730Z,88.70
2023-01-21T09:13:51.477Z,88.70
2023-01-21T09:16:20.612Z,88.80
2023-01-21T09:18:47.536Z,89.10
2023-01-21T09:21:15.106Z,89.20
2023-01-21T09:23:42.588Z,89.10
2023-01-21T09:26:16.540Z,89.40
2023-01-21T09:28:45.475Z,89.00
2023-01-21T09:31:15.271Z,89.00
2023-01-21T09:33:47.245Z,88.90
2023-01-21T09:36:16.851Z,88.70
2023-01-21T09:38:44.749Z,88.60
2023-01-21T09:41:39.752Z,88.40
2023-01-21T09:44:15.624Z,87.90
2023-01-21T09:46:45.327Z,88.50
2023-01-21T09:49:33.137Z,88.50
2023-01-21T09:52:48.726Z,88.40
2023-01-21T09:55:31.375Z,88.20
2023-01-21T09:58:19.278Z,88.20
2023-01-21T10:00:52.867Z,88.00
2023-01-21T10:03:22.734Z,88.30
2023-01-21T10:06:13.676Z,88.00
2023-01-21T10:08:51.963Z,87.80
2023-01-21T10:11:46.317Z,88.00
2023-01-21T10:14:47.339Z,88.00
2023-01-21T10:17:25.504Z,87.90
2023-01-21T10:20:21.479Z,87.60
2023-01-21T10:23:02.394Z,88.00
2023-01-21T10:25:33.472Z,88.50
2023-01-21T10:28:14.048Z,88.10
2023-01-21T10:30:45.174Z,87.80
2023-01-21T10:33:26.555Z,88.10
2023-01-21T10:36:14.238Z,88.00
2023-01-21T10:39:22.655Z,87.30
2023-01-21T10:42:11.832Z,87.50
2023-01-21T10:45:08.217Z,88.10
2023-01-21T10:47:55.471Z,87.60
2023-01-21T10:50:31.701Z,87.70
2023-01-21T10:53:10.497Z,87.40
2023-01-21T10:55:48.742Z,86.90
2023-01-21T10:58:35.000Z,87.00
2023-01-21T11:01:06.761Z,86.80
2023-01-21T11:03:46.688Z,86.90
2023-01-21T11:06:17.403Z,86.70
2023-01-21T11:08:48.097Z,86.70
2023-01-21T11:11:18.462Z,86.20
2023-01-21T11:13:45.633Z,86.30
2023-01-21T11:16:12.403Z,85.80
2023-01-21T11:18:42.815Z,85.70
2023-01-21T11:21:25.083Z,86.00
2023-01-21T11:23:57.292Z,85.40
2023-01-21T11:26:30.411Z,85.20
2023-01-21T11:29:08.682Z,84.70
2023-01-21T11:31:36.050Z,85.60
2023-01-21T11:34:23.018Z,85.30
2023-01-21T11:37:02.147Z,85.90
2023-01-21T11:39:34.619Z,85.90
2023-01-21T11:42:15.667Z,85.70
2023-01-21T11:45:04.277Z,85.10
2023-01-21T11:47:38.597Z,84.40
2023-01-21T11:50:13.028Z,84.30
2023-01-21T11:52:39.934Z,84.00
2023-01-21T11:55:21.695Z,84.20
2023-01-21T11:57:52.240Z,83.90
2023-01-21T12:00:21.514Z,84.30
2023-01-21T12:02:56.612Z,84.60
2023-01-21T12:05:31.708Z,84.20
2023-01-21T12:07:59.236Z,84.00
2023-01-21T12:10:33.466Z,84.00
2023-01-21T12:13:18.566Z,84.30
2023-01-21T12:16:10.083Z,84.10
2023-01-21T12:18:46.687Z,84.40
2023-01-21T12:21:40.651Z,83.80
2023-01-21T12:24:27.882Z,82.90
2023-01-21T12:27:13.426Z,81.80
2023-01-21T12:30:21.588Z,81.70
2023-01-21T12:32:56.679Z,81.70
2023-01-21T12:35:45.903Z,81.30
2023-01-21T12:38:36.480Z,81.50
2023-01-21T12:41:14.199Z,81.80
2023-01-21T12:43:46.116Z,80.60
2023-01-21T12:46:34.588Z,80.70
2023-01-21T12:49:27.498Z,80.70
2023-01-21T12:51:59.860Z,80.50
2023-01-21T12:55:04.540Z,79.20
2023-01-21T12:57:48.186Z,80.60
2023-01-21T13:00:23.078Z,80.40
2023-01-21T13:03:08.795Z,80.30
2023-01-21T13:05:47.633Z,80.20
2023-01-21T13:08:40.618Z,80.70
2023-01-21T13:11:22.839Z,79.90
2023-01-21T13:13:55.717Z,78.60
2023-01-21T13:16:26.350Z,77.60
2023-01-21T13:18:55.013Z,76.70
2023-01-21T13:21:39.089Z,76.70
2023-01-21T13:24:28.157Z,76.10
2023-01-21T13:27:12.677Z,76.20
2023-01-21T13:29:45.258Z,75.50
2023-01-21T13:32:31.155Z,73.80
2023-01-21T13:35:23.646Z,72.90
2023-01-21T13:37:50.963Z,74.80
2023-01-21T13:40:39.649Z,75.40
2023-01-21T13:43:27.535Z,76.10
2023-01-21T13:46:03.165Z,75.70
2023-01-21T13:48:49.470Z,76.90
2023-01-21T13:51:35.106Z,77.10
2023-01-21T13:54:28.006Z,77.30
2023-01-21T13:57:22.282Z,77.80
2023-01-21T13:59:51.686Z,78.00
2023-01-21T14:02:26.141Z,78.00
2023-01-21T14:05:09.602Z,78.20
2023-01-21T14:07:43.591Z,77.80
2023-01-21T14:10:29.275Z,77.20
2023-01-21T14:13:12.939Z,77.20
2023-01-21T14:15:51.558Z,79.50
2023-01-21T14:18:47.379Z,78.00
2023-01-21T14:21:38.800Z,78.20
2023-01-21T14:25:10.598Z,79.10
2023-01-21T14:28:12.483Z,78.60
2023-01-21T14:30:49.640Z,78.70
2023-01-21T14:33:23.662Z,78.60
2023-01-21T14:36:45.909Z,77.80
2023-01-21T14:39:31.334Z,78.00
2023-01-21T14:42:04.694Z,78.10
2023-01-21T14:44:36.974Z,77.90
2023-01-21T14:47:30.226Z,78.40
2023-01-21T14:49:59.018Z,78.40
2023-01-21T14:52:36.015Z,78.70
2023-01-21T14:55:03.560Z,78.40
2023-01-21T14:57:34.713Z,79.20
2023-01-21T15:00:21.431Z,79.40
2023-01-21T15:02:54.464Z,79.50
2023-01-21T15:05:27.744Z,79.80
2023-01-21T15:08:04.303Z,78.80
2023-01-21T15:10:37.440Z,78.70
2023-01-21T15:13:20.880Z,79.30
2023-01-21T15:16:07.697Z,79.80
2023-01-21T15:18:40.776Z,79.50
2023-01-21T15:21:37.298Z,79.90
2023-01-21T15:24:22.986Z,79.30
2023-01-21T15:27:14.533Z,79.90
2023-01-21T15:29:46.612Z,80.70
2023-01-21T15:32:36.699Z,80.60
2023-01-21T15:35:24.604Z,80.60
2023-01-21T15:38:13.874Z,80.70
2023-01-21T15:41:00.139Z,80.80
2023-01-21T15:43:36.708Z,80.90
2023-01-21T15:46:15.736Z,80.60
2023-01-21T15:48:53.296Z,79.70
2023-01-21T15:51:26.280Z,80.60
2023-01-21T15:54:20.317Z,80.40
2023-01-21T15:57:06.365Z,80.50
2023-01-21T15:59:48.538Z,80.40
2023-01-21T16:02:28.187Z,80.20
2023-01-21T16:05:21.112Z,80.10
2023-01-21T16:08:03.191Z,80.00
2023-01-21T16:10:34.554Z,79.70
2023-01-21T16:13:29.243Z,80.00
2023-01-21T16:16:17.893Z,80.30
2023-01-21T16:18:50.845Z,80.30
2023-01-21T16:21:24.531Z,80.40
2023-01-21T16:23:56.065Z,80.40
2023-01-21T16:26:32.869Z,80.70
2023-01-21T16:28:59.884Z,80.90
2023-01-21T16:31:26.774Z,81.10
2023-01-21T16:33:53.878Z,81.20
2023-01-21T16:36:20.944Z,81.40
2023-01-21T16:38:48.328Z,82.20
2023-01-21T16:41:15.343Z,81.10
2023-01-21T16:43:47.561Z,81.70
2023-01-21T16:46:17.442Z,82.20
2023-01-21T16:48:49.925Z,82.10
2023-01-21T16:51:24.013Z,82.60
2023-01-21T16:53:54.332Z,82.90
2023-01-21T16:56:29.731Z,83.00
2023-01-21T16:58:57.547Z,83.30
2023-01-21T17:01:27.636Z,83.70
2023-01-21T17:03:55.385Z,83.70
2023-01-21T17:06:31.742Z,83.40
2023-01-21T17:09:02.039Z,83.90
2023-01-21T17:11:29.127Z,83.90
2023-01-21T17:13:55.842Z,83.90
2023-01-21T17:16:29.643Z,84.20
2023-01-21T17:18:58.151Z,84.00
2023-01-21T17:22:01.386Z,84.30
2023-01-21T17:24:30.781Z,84.50
2023-01-21T17:27:07.931Z,84.70
2023-01-21T17:29:34.932Z,84.50
2023-01-21T17:32:04.614Z,84.40
2023-01-21T17:34:34.697Z,84.70
2023-01-21T17:37:02.272Z,84.80
2023-01-21T17:39:57.953Z,84.90
2023-01-21T17:42:29.617Z,84.80
2023-01-21T17:45:00.175Z,84.90
2023-01-21T17:47:31.218Z,85.10
2023-01-21T17:50:19.716Z,85.40
2023-01-21T17:53:06.952Z,85.70
2023-01-21T17:55:35.077Z,85.50
2023-01-21T17:58:05.734Z,85.90
2023-01-21T18:00:38.011Z,86.20
2023-01-21T18:03:05.046Z,86.00
2023-01-21T18:05:32.147Z,86.10
2023-01-21T18:07:59.182Z,86.20
2023-01-21T18:10:28.526Z,86.10
2023-01-21T18:12:56.959Z,86.20
2023-01-21T18:15:25.159Z,86.40
2023-01-21T18:17:57.174Z,86.50
2023-01-21T18:20:26.581Z,86.20
2023-01-21T18:22:55.280Z,86.40
2023-01-21T18:25:23.336Z,86.60
2023-01-21T18:27:56.240Z,86.40
2023-01-21T18:30:28.361Z,86.70
2023-01-21T18:32:56.518Z,87.00
2023-01-21T18:35:28.730Z,87.00
2023-01-21T18:37:55.864Z,87.00
2023-01-21T18:40:24.008Z,87.30
2023-01-21T18:42:52.794Z,87.60
2023-01-21T18:45:22.891Z,87.70
2023-01-21T18:47:50.833Z,87.80
2023-01-21T18:50:20.492Z,88.00
2023-01-21T18:52:47.479Z,88.00
2023-01-21T18:55:15.369Z,88.30
2023-01-21T18:57:44.692Z,88.20
2023-01-21T19:00:14.897Z,88.30
2023-01-21T19:02:41.730Z,88.40
2023-01-21T19:05:08.558Z,88.50
2023-01-21T19:07:35.416Z,88.60
2023-01-21T19:10:02.386Z,88.50
2023-01-21T19:12:29.605Z,88.50
2023-01-21T19:14:56.335Z,88.50
2023-01-21T19:17:29.100Z,88.60
2023-01-21T19:19:56.904Z,88.70
2023-01-21T19:22:24.662Z,88.60
2023-01-21T19:24:51.392Z,88.60
2023-01-21T19:27:27.899Z,88.60
2023-01-21T19:29:54.699Z,88.70
2023-01-21T19:32:21.529Z,88.50
2023-01-21T19:34:48.300Z,88.30
2023-01-21T19:37:17.105Z,88.40
2023-01-21T19:39:44.071Z,88.70
2023-01-21T19:42:14.718Z,88.60
2023-01-21T19:44:41.954Z,88.60
2023-01-21T19:47:27.609Z,88.80
2023-01-21T19:49:55.326Z,88.70
2023-01-21T19:52:22.118Z,88.70
2023-01-21T19:54:49.261Z,88.90
2023-01-21T19:57:17.244Z,88.80
2023-01-21T19:59:45.316Z,88.60
2023-01-21T20:02:12.301Z,88.80
2023-01-21T20:04:39.096Z,88.60
2023-01-21T20:07:07.072Z,88.70
2023-01-21T20:09:35.604Z,88.80
2023-01-21T20:12:04.350Z,88.80
2023-01-21T20:14:33.271Z,88.80
2023-01-21T20:17:00.045Z,88.60
2023-01-21T20:19:26.991Z,88.70
2023-01-21T20:22:01.998Z,88.90
2023-01-21T20:24:33.707Z,89.00
2023-01-21T20:27:05.170Z,89.20
2023-01-21T20:29:33.335Z,89.50
2023-01-21T20:32:00.206Z,89.20
2023-01-21T20:34:28.248Z,89.50
2023-01-21T20:36:56.000Z,89.70
2023-01-21T20:39:22.983Z,89.80
2023-01-21T20:41:49.725Z,89.80
2023-01-21T20:44:16.665Z,89.90
2023-01-21T20:46:45.710Z,89.60
2023-01-21T20:49:14.005Z,89.60
2023-01-21T20:51:41.018Z,89.80
2023-01-21T20:54:08.067Z,89.80
2023-01-21T20:56:34.907Z,89.60
2023-01-21T20:59:01.699Z,89.80
2023-01-21T21:01:31.142Z,89.90
2023-01-21T21:03:58.382Z,90.10
2023-01-21T21:06:28.631Z,89.90
2023-01-21T21:08:55.667Z,89.80
2023-01-21T21:11:23.137Z,90.00
2023-01-21T21:13:52.138Z,90.20
2023-01-21T21:16:20.016Z,90.40
2023-01-21T21:18:47.835Z,90.50
2023-01-21T21:21:16.449Z,90.70
2023-01-21T21:23:46.558Z,90.60
2023-01-21T21:26:22.067Z,90.60
2023-01-21T21:28:49.896Z,90.60
2023-01-21T21:31:18.022Z,90.60
2023-01-21T21:33:44.843Z,90.60
2023-01-21T21:36:23.059Z,90.50
2023-01-21T21:38:51.989Z,90.30
2023-01-21T21:41:39.109Z,90.20
2023-01-21T21:44:07.425Z,90.20
2023-01-21T21:46:53.708Z,90.00
2023-01-21T21:49:20.450Z,90.30
2023-01-21T21:51:47.545Z,90.20
2023-01-21T21:54:16.032Z,90.20
2023-01-21T21:56:43.379Z,90.10
2023-01-21T21:59:12.270Z,90.10
2023-01-21T22:01:40.608Z,90.30
2023-01-21T22:04:07.397Z,90.30
2023-01-21T22:06:34.559Z,90.30
2023-01-21T22:09:01.852Z,90.40
2023-01-21T22:11:29.475Z,90.40
2023-01-21T22:13:56.876Z,90.30
2023-01-21T22:16:26.437Z,90.40
2023-01-21T22:18:54.549Z,90.40
2023-01-21T22:21:26.620Z,90.40
2023-01-21T22:23:54.655Z,90.40
2023-01-21T22:26:23.876Z,90.50
2023-01-21T22:28:51.308Z,90.40
2023-01-21T22:31:23.643Z,90.50
2023-01-21T22:33:51.511Z,90.30
2023-01-21T22:36:21.035Z,90.10
2023-01-21T22:38:48.221Z,90.00
2023-01-21T22:41:17.671Z,90.00
2023-01-21T22:43:48.031Z,90.00
2023-01-21T22:46:17.556Z,90.00
2023-01-21T22:48:44.452Z,90.00
2023-01-21T22:51:15.790Z,90.10
2023-01-21T22:53:45.484Z,90.20
2023-01-21T22:56:14.062Z,90.30
2023-01-21T22:58:41.280Z,90.20
2023-01-21T23:01:08.962Z,90.20
2023-01-21T23:03:37.196Z,90.10
2023-01-21T23:06:05.511Z,90.20
2023-01-21T23:08:32.305Z,90.30
2023-01-21T23:11:03.918Z,90.40
2023-01-21T23:13:31.609Z,90.40
2023-01-21T23:15:59.080Z,90.50
2023-01-21T23:18:27.689Z,90.70
2023-01-21T23:20:55.154Z,90.80
2023-01-21T23:23:22.250Z,90.70
2023-01-21T23:25:49.529Z,90.70
2023-01-21T23:28:16.633Z,90.80
2023-01-21T23:30:43.752Z,90.80
2023-01-21T23:33:11.415Z,90.80
2023-01-21T23:35:38.143Z,90.70
2023-01-21T23:38:04.943Z,90.80
2023-01-21T23:40:31.692Z,90.80
2023-01-21T23:42:58.449Z,90.90
2023-01-21T23:45:25.215Z,90.80
2023-01-21T23:47:52.090Z,90.70
2023-01-21T23:50:19.017Z,90.70
2023-01-21T23:52:45.954Z,91.00
2023-01-21T23:55:14.573Z,91.10
2023-01-21T23:57:41.347Z,91.00
